Sunday, July 22, 2018, 8:17 PM EDT
Back to Local

KJST, Johnstown-cambria Co Airport

Location: Johnstown, PA, United States Lat: 40.317
Local Time: 8:17 PM EDT ( 0:17 GMT) Lon: -78.833
Time Zone: US/Eastern Elev: 2283 ft

Show me the last for .
Show Decoded

2018-07-22 19:54 METAR KJST 222354Z AUTO 12005KT 10SM FEW013 BKN080 20/18 A2990 RMK AO2 SLP116
                 60000 T02000178 10211 20194 53008 =
2018-07-22 19:12 METAR KJST 222312Z AUTO 12004KT 10SM SCT011 OVC070 20/18 A2990 RMK AO2 T02000178
                 =
2018-07-22 18:54 METAR KJST 222254Z AUTO 14006KT 10SM SCT011 BKN025 OVC070 20/18 A2989 RMK AO2
                 SLP113 T02000178 =
2018-07-22 18:26 METAR KJST 222226Z AUTO VRB06KT 10SM FEW014 BKN025 OVC070 20/18 A2988 RMK AO2
                 T02000178 =
2018-07-22 17:54 METAR KJST 222154Z AUTO 11005KT 10SM FEW035 SCT055 OVC070 20/18 A2987 RMK AO2
                 RAB17E41 SLP107 P0000 T02000183 =
2018-07-22 17:06 METAR KJST 222106Z AUTO 12007KT 10SM FEW019 BKN039 OVC055 21/17 A2987 RMK AO2
                 T02060172 =
2018-07-22 16:54 METAR KJST 222054Z AUTO 11007KT 070V140 10SM FEW016 BKN024 OVC040 21/17 A2987
                 RMK AO2 SLP108 T02060172 53006 =
2018-07-22 16:26 METAR KJST 222026Z AUTO 11010G15KT 10SM SCT015 BKN026 BKN031 21/18 A2987 RMK AO2
                 T02110178 =
2018-07-22 15:54 METAR KJST 221954Z AUTO 13007KT 10SM BKN014 BKN019 21/17 A2986 RMK AO2 SLP103
                 T02060172 =
2018-07-22 15:46 METAR KJST 221946Z AUTO VRB06G16KT 10SM BKN014 OVC019 20/17 A2986 RMK AO2
                 T02000172 =
2018-07-22 14:54 METAR KJST 221854Z AUTO 13011G18KT 10SM BKN015 BKN020 21/17 A2985 RMK AO2 PK WND
                 14027/1816 SLP099 T02060172 =
2018-07-22 14:46 METAR KJST 221846Z AUTO 13007G15KT 10SM OVC017 21/17 A2985 RMK AO2 PK WND
                 14027/1816 CIG 011V023 T02060172 =
2018-07-22 14:39 METAR KJST 221839Z AUTO 13009G15KT 10SM BKN013 OVC021 20/17 A2986 RMK AO2 PK WND
                 14027/1816 T02000167 =
2018-07-22 14:26 METAR KJST 221826Z AUTO 12010G16KT 10SM BKN015 OVC021 20/17 A2986 RMK AO2 PK WND
                 14027/1816 T02000172 =
2018-07-22 13:54 METAR KJST 221754Z AUTO 14010KT 10SM OVC013 21/17 A2986 RMK AO2 SLP100 T02060172
                 10211 20144 51006 =
2018-07-22 13:20 METAR KJST 221720Z AUTO 14008KT 10SM BKN011 OVC015 20/17 A2986 RMK AO2 CIG
                 008V013 T02000172 =
2018-07-22 12:54 METAR KJST 221654Z AUTO 16009G17KT 10SM BKN009 OVC015 20/17 A2985 RMK AO2 SLP100
                 T02000167 =
2018-07-22 12:18 METAR KJST 221618Z AUTO 14009KT 10SM OVC013 19/17 A2985 RMK AO2 T01940172 =
2018-07-22 11:54 METAR KJST 221554Z AUTO 13006KT 10SM OVC015 21/17 A2984 RMK AO2 SLP094 T02060172
                 =
2018-07-22 11:52 METAR KJST 221552Z AUTO 15006KT 10SM OVC015 21/17 A2984 RMK AO2 =
2018-07-22 10:46 METAR KJST 221446Z AUTO 20006KT 10SM OVC010 19/17 A2983 RMK AO2 T01890167 =
2018-07-22 10:11 METAR KJST 221411Z AUTO 20004KT 10SM OVC006 18/16 A2982 RMK AO2 T01780161 =
2018-07-22 09:54 METAR KJST 221354Z AUTO 19005KT 10SM OVC004 18/16 A2981 RMK AO2 CIG 002V007
                 SLP088 T01780161 =
2018-07-22 09:33 METAR KJST 221333Z AUTO 17006KT 3SM BR OVC002 17/16 A2981 RMK AO2 T01670161 =
2018-07-22 09:24 METAR KJST 221324Z AUTO 21006KT 1 3/4SM BR OVC002 16/16 A2980 RMK AO2 T01610156
                 =
2018-07-22 09:19 METAR KJST 221319Z AUTO 20006KT 4SM BR OVC002 16/15 A2981 RMK AO2 T01610150 =
2018-07-22 09:12 METAR KJST 221312Z AUTO 19008KT 2 1/2SM BR OVC002 16/15 A2980 RMK AO2 T01610150
                 =
2018-07-22 08:54 METAR KJST 221254Z AUTO 22005KT 1 1/4SM BR OVC002 16/15 A2980 RMK AO2 VIS 3/4V2
                 1/2 SLP084 T01560150 =
2018-07-22 08:38 METAR KJST 221238Z AUTO 21007KT 1/2SM FG VV002 15/14 A2979 RMK AO2 T01500144 =
2018-07-22 08:26 METAR KJST 221226Z AUTO 22006KT 1 1/4SM BR OVC002 15/14 A2979 RMK AO2 T01500139
                 =
2018-07-22 08:09 METAR KJST 221209Z AUTO 22007KT 3/4SM BR VV002 15/14 A2978 RMK AO2 T01500139 =
2018-07-22 07:59 METAR KJST 221159Z AUTO 22007KT 1 1/2SM BR OVC002 15/14 A2978 RMK AO2 T01500139
                 =
2018-07-22 07:54 METAR KJST 221154Z AUTO 23008KT 4SM BR OVC002 15/14 A2978 RMK AO2 SLP078 60001
                 70018 T01500139 10150 20139 50007 =
2018-07-22 07:52 METAR KJST 221152Z AUTO 23007KT 4SM BR OVC002 15/14 A2978 RMK AO2 =
2018-07-22 07:18 METAR KJST 221118Z AUTO 20005KT 10SM OVC004 14/14 A2977 RMK AO2 T01440139 =
2018-07-22 06:58 METAR KJST 221058Z AUTO 22006KT 3SM BR OVC002 14/13 A2977 RMK AO2 T01440133 =
2018-07-22 06:54 METAR KJST 221054Z AUTO 23007KT 1SM BR OVC002 14/13 A2977 RMK AO2 VIS 1/4V3
                 SLP073 T01440133 =
2018-07-22 06:42 METAR KJST 221042Z AUTO 21003KT 1/2SM FG VV002 14/13 A2977 RMK AO2 T01440133 =
2018-07-22 06:28 METAR KJST 221028Z AUTO 21004KT 1 3/4SM BR OVC002 14/13 A2977 RMK AO2 VIS 1V4
                 T01440133 =
2018-07-22 06:22 METAR KJST 221022Z AUTO 22003KT 3SM BR OVC002 14/13 A2976 RMK AO2 T01440133 =
2018-07-22 05:54 METAR KJST 220954Z AUTO 24004KT 3SM BR OVC003 14/13 A2976 RMK AO2 SLP069
                 T01440133 =
2018-07-22 05:31 METAR KJST 220931Z AUTO 00000KT 10SM OVC004 14/13 A2975 RMK AO2 CIG 002V006
                 T01440133 =
2018-07-22 05:03 METAR KJST 220903Z AUTO 25003KT 3SM BR BKN007 BKN110 14/13 A2975 RMK AO2
                 T01390133 =
2018-07-22 04:54 METAR KJST 220854Z AUTO 00000KT 1 3/4SM BR BKN007 BKN012 BKN120 14/13 A2974 RMK
                 AO2 SLP063 60001 T01390128 55016 =
2018-07-22 04:19 METAR KJST 220819Z AUTO 00000KT 10SM FEW003 OVC014 14/13 A2974 RMK AO2 T01390128
                 =
2018-07-22 04:04 METAR KJST 220804Z AUTO 00000KT 10SM SCT004 OVC015 14/13 A2974 RMK AO2 T01390128
                 =
2018-07-22 03:54 METAR KJST 220754Z AUTO 05005KT 10SM BKN003 OVC015 14/13 A2974 RMK AO2 RAB19E54
                 CIG 003V007 SLP062 P0000 T01390133 =
2018-07-22 03:27 METAR KJST 220727Z AUTO 01004KT 10SM -RA OVC003 14/13 A2976 RMK AO2 RAB19 P0000
                 T01440133 =
2018-07-22 02:54 METAR KJST 220654Z AUTO 00000KT 9SM OVC002 14/13 A2977 RMK AO2 RAE29 SLP073
                 P0001 T01440133 =
2018-07-22 02:42 METAR KJST 220642Z AUTO 05004KT 10SM OVC002 14/13 A2977 RMK AO2 RAE29 P0001
                 T01440133 =
2018-07-22 02:17 METAR KJST 220617Z AUTO 06004KT 5SM -RA BR OVC003 14/13 A2978 RMK AO2 P0001
                 T01440133 =
2018-07-22 02:05 METAR KJST 220605Z AUTO 05006KT 3SM -RA BR OVC002 14/13 A2979 RMK AO2 P0000
                 T01440133 =
2018-07-22 01:54 METAR KJST 220554Z AUTO 05004KT 1 1/4SM -RA BR OVC002 14/13 A2979 RMK AO2 SLP079
                 P0003 60016 T01440133 10161 20144 56024 =
2018-07-22 01:39 METAR KJST 220539Z AUTO 06006KT 1 3/4SM -RA BR OVC002 14/13 A2980 RMK AO2 P0002
                 T01440133 =
2018-07-22 01:06 METAR KJST 220506Z AUTO 05007KT 6SM -RA BR OVC002 14/13 A2981 RMK AO2 P0001
                 T01440133 =
2018-07-22 00:54 METAR KJST 220454Z AUTO 04005KT 7SM -RA BKN003 OVC009 14/13 A2982 RMK AO2 SLP087
                 P0002 T01440133 402170144 =
2018-07-22 00:43 METAR KJST 220443Z AUTO 04004KT 9SM -RA BKN003 OVC009 14/13 A2982 RMK AO2 P0002
                 T01440133 =
2018-07-22 00:03 METAR KJST 220403Z AUTO 06003KT 10SM -RA OVC008 14/13 A2984 RMK AO2 P0000
                 T01440133 =
2018-07-21 23:54 METAR KJST 220354Z AUTO 00000KT 10SM -RA OVC010 14/13 A2984 RMK AO2 SLP096 P0004
                 T01440133 =
2018-07-21 23:42 METAR KJST 220342Z AUTO 00000KT 9SM -RA OVC010 14/13 A2985 RMK AO2 P0003
                 T01440133 =
2018-07-21 23:18 METAR KJST 220318Z AUTO 00000KT 7SM -RA BKN008 OVC012 14/13 A2986 RMK AO2 CIG
                 004V010 P0002 T01440133 =
2018-07-21 22:54 METAR KJST 220254Z AUTO 08004KT 10SM -RA FEW004 OVC010 14/13 A2987 RMK AO2 CIG
                 007V013 SLP104 P0004 60007 T01440133 58013 =
2018-07-21 22:43 METAR KJST 220243Z AUTO 07005KT 9SM -RA SCT005 OVC010 14/13 A2987 RMK AO2 CIG
                 008V013 P0003 T01440133 =
2018-07-21 22:05 METAR KJST 220205Z AUTO 07007KT 8SM -RA BKN004 OVC008 15/14 A2988 RMK AO2 CIG
                 002V006 P0001 T01500139 =
2018-07-21 21:54 METAR KJST 220154Z AUTO 06007KT 10SM -RA BKN005 BKN008 OVC012 15/14 A2989 RMK
                 AO2 CIG 003V006 SLP111 P0002 T01500139 =
2018-07-21 20:54 METAR KJST 220054Z AUTO 06005KT 10SM -RA OVC006 16/14 A2990 RMK AO2 CIG 003V008
                 SLP117 P0001 T01560144 =
2018-07-21 20:23 METAR KJST 220023Z AUTO 07004KT 10SM -RA OVC008 16/14 A2991 RMK AO2 CIG 004V012
                 P0000 T01560144 =

Support USWX by starting your Amazon purchase here.